Time;durP1;ratioP1;P1;durP2;ratioP2;P2;SDS_P1;SDS_P2;PMS_P1;PMS_P2;Temp;Humidity;BMP_temperature;BMP_pressure;BME280_temperature;BME280_humidity;BME280_pressure;Samples;Min_cycle;Max_cycle;Signal;HPM_P1;HPM_P2
2022/11/08 00:01:33;;;;;;;5.75;1.67;;;16.10;99.90;;;;;;5055411;28;20039;-72
2022/11/08 00:04:05;;;;;;;6.72;1.73;;;16.10;99.90;;;;;;5055050;28;20021;-71
2022/11/08 00:14:47;;;;;;;5.57;1.77;;;15.90;99.90;;;;;;5054961;28;20044;-71
2022/11/08 00:17:15;;;;;;;5.68;2.00;;;15.90;99.90;;;;;;5053084;28;20072;-65
2022/11/08 00:19:41;;;;;;;7.80;2.15;;;15.90;99.90;;;;;;5054741;28;20029;-72
2022/11/08 00:22:08;;;;;;;5.35;1.75;;;15.90;99.90;;;;;;5055337;28;20083;-70
2022/11/08 00:24:33;;;;;;;4.30;1.42;;;15.90;99.90;;;;;;5054748;28;20060;-69
2022/11/08 00:27:02;;;;;;;3.63;1.60;;;15.90;99.90;;;;;;5054696;28;20072;-71
2022/11/08 00:29:28;;;;;;;3.33;1.58;;;15.90;99.90;;;;;;5053362;28;20025;-72
2022/11/08 00:31:53;;;;;;;6.70;1.65;;;15.90;99.90;;;;;;5054941;28;20032;-63
2022/11/08 00:34:19;;;;;;;7.10;1.83;;;15.80;99.90;;;;;;5053312;28;20029;-65
2022/11/08 00:36:44;;;;;;;4.90;1.48;;;15.90;99.90;;;;;;5054572;28;20064;-60
2022/11/08 00:39:10;;;;;;;6.68;1.42;;;15.80;99.90;;;;;;5054635;28;20028;-66
2022/11/08 00:41:36;;;;;;;6.70;1.77;;;15.80;99.90;;;;;;5054656;28;20025;-67
2022/11/08 00:44:01;;;;;;;6.00;1.85;;;15.80;99.90;;;;;;5054469;28;20529;-68
2022/11/08 00:46:27;;;;;;;6.20;2.20;;;15.80;99.90;;;;;;5054408;28;20115;-67
2022/11/08 00:48:52;;;;;;;5.35;1.85;;;15.70;99.90;;;;;;5054325;28;20029;-71
2022/11/08 00:51:18;;;;;;;6.70;1.52;;;15.70;99.90;;;;;;5054459;28;20036;-67
2022/11/08 00:53:44;;;;;;;7.57;2.08;;;15.70;99.90;;;;;;5053299;28;20036;-70
2022/11/08 00:56:11;;;;;;;5.72;1.85;;;15.70;99.90;;;;;;5054085;28;20021;-63
2022/11/08 00:58:37;;;;;;;7.80;1.60;;;15.70;99.90;;;;;;5054200;28;20103;-68
2022/11/08 01:01:11;;;;;;;3.88;1.35;;;15.70;99.90;;;;;;5054188;28;20094;-73
2022/11/08 01:03:37;;;;;;;5.70;2.00;;;15.70;99.90;;;;;;5054028;28;20059;-70
2022/11/08 01:06:05;;;;;;;3.83;1.20;;;15.70;99.90;;;;;;5053948;28;20063;-69
2022/11/08 01:08:30;;;;;;;4.07;1.75;;;15.70;99.90;;;;;;5054261;28;20167;-72
2022/11/08 01:10:59;;;;;;;4.38;1.30;;;15.70;99.90;;;;;;5053885;28;20104;-69
2022/11/08 01:13:25;;;;;;;4.20;1.58;;;15.70;99.90;;;;;;5053843;28;20473;-70
2022/11/08 01:15:51;;;;;;;4.63;1.63;;;15.70;99.90;;;;;;5053874;28;20028;-73
2022/11/08 01:18:16;;;;;;;4.15;1.58;;;15.70;99.90;;;;;;5053901;28;20025;-63
2022/11/08 01:20:44;;;;;;;5.93;1.80;;;15.70;99.90;;;;;;5053043;28;20017;-69
2022/11/08 01:23:11;;;;;;;5.90;1.95;;;15.70;99.90;;;;;;5054015;28;20462;-72
2022/11/08 01:25:42;;;;;;;6.13;1.90;;;15.70;99.90;;;;;;5053639;28;20036;-67
2022/11/08 01:28:10;;;;;;;4.78;2.17;;;15.70;99.90;;;;;;5053405;28;20437;-63
2022/11/08 01:30:41;;;;;;;8.18;2.25;;;15.70;99.90;;;;;;5052830;28;20486;-66
2022/11/08 01:33:07;;;;;;;5.88;1.80;;;15.60;99.90;;;;;;5053655;28;20060;-68
2022/11/08 01:35:34;;;;;;;6.32;2.45;;;15.60;99.90;;;;;;5053142;28;20055;-72
2022/11/08 01:38:00;;;;;;;7.95;2.60;;;15.60;99.90;;;;;;5053576;28;20109;-72
2022/11/08 01:40:27;;;;;;;5.85;2.20;;;15.50;99.90;;;;;;5053681;28;20021;-67
2022/11/08 01:42:53;;;;;;;6.22;1.92;;;15.50;99.90;;;;;;5053191;28;20017;-66
2022/11/08 01:45:56;;;;;;;7.53;2.78;;;15.50;99.90;;;;;;5053571;28;20574;-60
2022/11/08 01:48:24;;;;;;;7.00;2.28;;;15.50;99.90;;;;;;5053316;28;20069;-73
2022/11/08 01:50:51;;;;;;;6.00;2.15;;;15.50;99.90;;;;;;5053038;28;20029;-68
2022/11/08 01:53:18;;;;;;;7.05;1.95;;;15.50;99.90;;;;;;5053478;28;20075;-73
2022/11/08 01:55:44;;;;;;;5.25;1.88;;;15.40;99.90;;;;;;5053047;28;20481;-71
2022/11/08 01:58:16;;;;;;;5.93;2.00;;;15.40;99.90;;;;;;5053121;28;20071;-68
2022/11/08 02:00:42;;;;;;;;;;;15.40;99.90;;;;;;5053736;28;20585;-66
2022/11/08 02:03:11;;;;;;;10.02;2.40;;;15.30;99.90;;;;;;5053141;28;19940;-68
2022/11/08 02:05:38;;;;;;;6.97;2.30;;;15.30;99.90;;;;;;5052900;28;20417;-73
2022/11/08 02:08:18;;;;;;;4.95;1.85;;;15.30;99.90;;;;;;5051675;28;20123;-72
2022/11/08 02:10:48;;;;;;;6.30;1.52;;;15.30;99.90;;;;;;5052808;28;20025;-71
2022/11/08 02:13:17;;;;;;;4.45;1.63;;;15.30;99.90;;;;;;5052522;28;20029;-64
2022/11/08 02:15:43;;;;;;;5.70;1.80;;;15.20;99.90;;;;;;5053057;28;20104;-73
2022/11/08 02:18:09;;;;;;;4.25;1.35;;;15.20;99.90;;;;;;5052772;28;20117;-61
2022/11/08 02:20:34;;;;;;;4.65;1.48;;;15.30;99.90;;;;;;5033307;28;20029;-62
2022/11/08 02:23:23;;;;;;;4.47;1.30;;;15.20;99.90;;;;;;5032907;28;20351;-61
2022/11/08 02:25:48;;;;;;;5.70;1.55;;;15.20;99.90;;;;;;5032310;28;20096;-61
2022/11/08 02:28:14;;;;;;;6.78;1.75;;;15.20;99.90;;;;;;5032686;28;20038;-62
2022/11/08 02:30:41;;;;;;;3.10;0.85;;;15.10;99.90;;;;;;5031718;28;20364;-61
2022/11/08 02:33:24;;;;;;;4.35;1.35;;;15.10;99.90;;;;;;5034370;28;20590;-66
2022/11/08 02:35:53;;;;;;;6.63;1.63;;;15.20;99.90;;;;;;5052537;28;20478;-60
2022/11/08 02:38:20;;;;;;;11.65;1.77;;;15.10;99.90;;;;;;5052516;28;20037;-61
2022/11/08 02:40:51;;;;;;;5.75;1.60;;;15.10;99.90;;;;;;5055075;28;20420;-66
2022/11/08 02:43:17;;;;;;;4.05;1.40;;;15.10;99.90;;;;;;5059103;28;20501;-69
2022/11/08 02:45:43;;;;;;;6.57;1.65;;;15.10;99.90;;;;;;5058166;28;20068;-66
2022/11/08 02:48:10;;;;;;;6.53;1.58;;;15.10;99.90;;;;;;5059004;28;20064;-68
2022/11/08 02:50:35;;;;;;;7.72;1.50;;;15.10;99.90;;;;;;5059198;28;20020;-72
2022/11/08 02:53:01;;;;;;;7.43;1.45;;;15.10;99.90;;;;;;5057842;28;20021;-69
2022/11/08 02:55:28;;;;;;;5.10;1.45;;;15.10;99.90;;;;;;5058903;28;20387;-68
2022/11/08 02:57:53;;;;;;;4.60;1.50;;;15.10;99.90;;;;;;5059095;28;20021;-66
2022/11/08 03:00:19;;;;;;;4.07;1.20;;;15.00;99.90;;;;;;5059320;28;20017;-67
2022/11/08 03:02:50;;;;;;;6.18;1.52;;;15.00;99.90;;;;;;5059167;28;20056;-72
2022/11/08 03:05:18;;;;;;;5.15;1.40;;;15.10;99.90;;;;;;5058753;28;20031;-66
2022/11/08 03:07:44;;;;;;;6.30;1.25;;;15.00;99.90;;;;;;5048785;28;20048;-62
2022/11/08 03:10:10;;;;;;;4.78;1.50;;;15.00;99.90;;;;;;5051663;28;20021;-61
2022/11/08 03:12:37;;;;;;;4.78;1.25;;;15.00;99.90;;;;;;5060089;28;20029;-70
2022/11/08 03:15:05;;;;;;;4.40;1.17;;;15.00;99.90;;;;;;5055914;28;20028;-62
2022/11/08 03:17:31;;;;;;;4.13;1.10;;;15.00;99.90;;;;;;5058857;28;20024;-68
2022/11/08 03:19:56;;;;;;;4.90;1.50;;;15.00;99.90;;;;;;5058912;28;20104;-67
2022/11/08 03:22:22;;;;;;;3.15;1.27;;;14.90;99.90;;;;;;5058051;28;20029;-61
2022/11/08 03:24:47;;;;;;;3.55;1.38;;;14.90;99.90;;;;;;5057956;28;20045;-71
2022/11/08 03:27:14;;;;;;;5.57;1.35;;;14.90;99.90;;;;;;5058810;28;20036;-67
2022/11/08 03:29:40;;;;;;;6.68;1.45;;;14.90;99.90;;;;;;5057577;28;20029;-70
2022/11/08 03:32:06;;;;;;;8.43;1.40;;;14.90;99.90;;;;;;5058577;28;20033;-73
2022/11/08 03:34:31;;;;;;;5.25;1.38;;;14.80;99.90;;;;;;5058886;28;20079;-70
2022/11/08 03:36:57;;;;;;;3.75;1.35;;;14.90;99.90;;;;;;5058623;28;20090;-65
2022/11/08 03:39:23;;;;;;;2.80;0.90;;;14.90;99.90;;;;;;5058638;28;20078;-72
2022/11/08 03:41:48;;;;;;;6.70;1.42;;;14.90;99.90;;;;;;5058521;28;20032;-69
2022/11/08 03:44:14;;;;;;;7.28;1.83;;;14.80;99.90;;;;;;5058452;28;20040;-71
2022/11/08 03:46:39;;;;;;;3.85;0.82;;;14.80;99.90;;;;;;5058739;28;20024;-70
2022/11/08 03:49:05;;;;;;;2.53;0.90;;;14.80;99.90;;;;;;5058596;28;20029;-71
2022/11/08 03:51:31;;;;;;;6.90;1.38;;;14.80;99.90;;;;;;5058157;28;20103;-67
2022/11/08 03:53:56;;;;;;;4.32;1.30;;;14.80;99.90;;;;;;5054644;28;20061;-72
2022/11/08 04:02:35;;;;;;;4.47;1.50;;;14.70;99.80;;;;;;5045532;22;20056;-67
2022/11/08 04:05:00;;;;;;;4.32;1.17;;;14.70;99.80;;;;;;5054740;28;20040;-68
2022/11/08 04:07:27;;;;;;;3.25;1.20;;;14.70;99.80;;;;;;5054938;28;20555;-68
2022/11/08 04:09:56;;;;;;;5.05;1.38;;;14.70;99.80;;;;;;5055418;28;20022;-67
2022/11/08 04:15:14;;;;;;;4.75;1.13;;;14.70;99.70;;;;;;5035328;28;20513;-67
2022/11/08 04:23:09;;;;;;;4.35;1.58;;;14.60;99.80;;;;;;5038763;28;20039;-68
2022/11/08 04:25:35;;;;;;;3.97;1.08;;;14.60;99.60;;;;;;5055117;28;20112;-68
2022/11/08 04:28:01;;;;;;;3.13;1.17;;;14.60;99.70;;;;;;5055008;28;20071;-68
2022/11/08 04:30:27;;;;;;;4.25;1.40;;;14.60;99.60;;;;;;5055095;28;20029;-67
2022/11/08 04:32:52;;;;;;;5.68;1.17;;;14.50;99.70;;;;;;5054700;28;20033;-67
2022/11/08 04:35:18;;;;;;;4.13;1.15;;;14.60;99.60;;;;;;5054692;28;20033;-67
2022/11/08 04:37:43;;;;;;;4.68;1.20;;;14.60;99.60;;;;;;5055104;28;20021;-67
2022/11/08 04:40:10;;;;;;;6.15;1.58;;;14.50;99.50;;;;;;5054513;28;20092;-67
2022/11/08 04:42:35;;;;;;;2.10;1.05;;;14.50;99.50;;;;;;5054963;28;20032;-67
2022/11/08 04:45:01;;;;;;;5.20;1.48;;;14.50;99.30;;;;;;5054035;28;20033;-67
2022/11/08 04:47:27;;;;;;;4.78;1.40;;;14.50;99.40;;;;;;5054691;28;20059;-67
2022/11/08 04:49:53;;;;;;;2.03;1.05;;;14.50;99.40;;;;;;5054434;28;20030;-67
2022/11/08 04:52:19;;;;;;;5.15;1.45;;;14.50;99.60;;;;;;5054806;28;20384;-67
2022/11/08 04:54:46;;;;;;;2.50;0.95;;;14.50;99.50;;;;;;5054083;28;20504;-67
2022/11/08 04:57:12;;;;;;;3.10;1.20;;;14.50;99.40;;;;;;5054653;28;20497;-67
2022/11/08 04:59:38;;;;;;;6.13;1.73;;;14.50;99.30;;;;;;5054631;28;20024;-67
2022/11/08 05:02:03;;;;;;;2.78;0.82;;;14.40;99.20;;;;;;5054035;28;20074;-67
2022/11/08 05:04:29;;;;;;;2.58;1.00;;;14.40;99.20;;;;;;5053930;28;20025;-67
2022/11/08 05:06:55;;;;;;;1.90;0.95;;;14.40;99.60;;;;;;5054159;28;20477;-67
2022/11/08 05:09:21;;;;;;;3.95;1.48;;;14.40;99.30;;;;;;5054496;28;20029;-67
2022/11/08 05:11:46;;;;;;;4.15;1.13;;;14.40;99.30;;;;;;5054054;28;20381;-67
2022/11/08 05:14:12;;;;;;;3.90;0.82;;;14.40;99.20;;;;;;5052955;28;20032;-67
2022/11/08 05:16:38;;;;;;;2.65;0.82;;;14.40;99.10;;;;;;5050607;28;20020;-67
2022/11/08 05:19:03;;;;;;;3.72;1.05;;;14.40;99.40;;;;;;5052512;28;20031;-67
2022/11/08 05:24:15;;;;;;;4.40;1.33;;;14.40;99.10;;;;;;5047679;28;20105;-67
2022/11/08 05:26:43;;;;;;;1.95;0.77;;;14.40;99.30;;;;;;5053706;28;20033;-67
2022/11/08 05:29:11;;;;;;;4.10;1.05;;;14.40;99.40;;;;;;5047609;28;20104;-67
2022/11/08 05:31:36;;;;;;;5.10;1.40;;;14.30;99.10;;;;;;5050950;28;20029;-67
2022/11/08 05:34:02;;;;;;;4.20;1.00;;;14.30;99.10;;;;;;5052043;28;20033;-67
2022/11/08 05:36:28;;;;;;;4.53;1.13;;;14.30;99.10;;;;;;5053628;28;20021;-67
2022/11/08 05:38:54;;;;;;;3.60;1.05;;;14.30;99.00;;;;;;5053605;28;20385;-67
2022/11/08 05:41:22;;;;;;;2.58;1.23;;;14.40;99.40;;;;;;5046180;28;20033;-67
2022/11/08 05:43:50;;;;;;;2.97;1.00;;;14.40;99.20;;;;;;5039819;28;20117;-67
2022/11/08 05:46:17;;;;;;;2.03;1.10;;;14.40;99.90;;;;;;5053441;28;20068;-67
2022/11/08 05:48:45;;;;;;;1.75;0.90;;;14.40;99.90;;;;;;5050911;28;20025;-67
2022/11/08 05:51:15;;;;;;;2.47;0.80;;;14.40;99.90;;;;;;5053222;28;20036;-67
2022/11/08 05:53:41;;;;;;;3.03;1.17;;;14.40;99.90;;;;;;5053154;28;20024;-67
2022/11/08 05:56:07;;;;;;;3.90;1.08;;;14.50;99.90;;;;;;5053401;28;20029;-67
2022/11/08 05:58:34;;;;;;;2.25;0.82;;;14.40;99.90;;;;;;5052598;28;20025;-67
2022/11/08 06:01:14;;;;;;;2.15;0.90;;;14.50;99.90;;;;;;5048450;28;20028;-67
2022/11/08 06:03:40;;;;;;;2.22;0.90;;;14.50;99.90;;;;;;5037318;28;20128;-67
2022/11/08 06:06:09;;;;;;;3.05;0.82;;;14.60;99.90;;;;;;5032397;28;20473;-67
2022/11/08 06:08:35;;;;;;;5.10;1.48;;;14.70;99.90;;;;;;5038264;28;20055;-67
2022/11/08 06:11:06;;;;;;;2.45;0.93;;;14.70;99.90;;;;;;5052981;28;20053;-64
2022/11/08 06:13:33;;;;;;;2.15;0.90;;;14.70;99.90;;;;;;5053044;28;20021;-66
2022/11/08 06:16:03;;;;;;;2.08;0.85;;;14.70;99.90;;;;;;5051901;28;20033;-66
2022/11/08 06:18:30;;;;;;;3.75;1.08;;;14.70;99.30;;;;;;5041159;28;20033;-66
2022/11/08 06:21:02;;;;;;;2.58;0.90;;;14.80;99.10;;;;;;5037920;28;20099;-65
2022/11/08 06:23:28;;;;;;;2.58;0.90;;;14.80;98.50;;;;;;5038512;28;20025;-67
2022/11/08 06:25:54;;;;;;;3.83;1.27;;;14.70;98.30;;;;;;5037016;28;20245;-66
2022/11/08 06:28:19;;;;;;;5.05;1.20;;;14.70;97.90;;;;;;5041104;28;20041;-65
2022/11/08 06:30:46;;;;;;;3.33;1.23;;;14.80;97.50;;;;;;5041880;28;20017;-66
2022/11/08 06:33:11;;;;;;;16.52;2.55;;;14.80;97.50;;;;;;5032320;28;20057;-67
2022/11/08 06:35:37;;;;;;;6.25;1.25;;;14.80;97.20;;;;;;5033898;28;20478;-66
2022/11/08 06:38:03;;;;;;;14.50;2.15;;;14.70;97.00;;;;;;5041574;28;20021;-66
2022/11/08 06:40:31;;;;;;;11.23;2.10;;;14.70;97.40;;;;;;5046367;28;20036;-66
2022/11/08 06:42:57;;;;;;;6.55;1.52;;;14.70;96.90;;;;;;5049476;28;20124;-64
2022/11/08 06:45:24;;;;;;;9.10;1.40;;;14.70;97.10;;;;;;5051959;28;20021;-66
2022/11/08 06:47:59;;;;;;;7.85;1.50;;;14.70;96.90;;;;;;5040915;28;20496;-65
2022/11/08 06:50:25;;;;;;;5.97;1.33;;;14.70;97.30;;;;;;5041181;28;20025;-64
2022/11/08 06:52:57;;;;;;;3.53;1.20;;;14.70;97.40;;;;;;5037184;28;20025;-65
2022/11/08 06:55:22;;;;;;;7.22;1.42;;;14.70;97.00;;;;;;5051463;28;20036;-65
2022/11/08 06:57:48;;;;;;;9.55;1.63;;;14.70;96.80;;;;;;5046042;28;20619;-65
2022/11/08 07:00:14;;;;;;;21.33;2.70;;;14.70;96.90;;;;;;5046103;28;20028;-67
2022/11/08 07:02:40;;;;;;;14.30;2.58;;;14.70;97.50;;;;;;5046145;28;20028;-64
2022/11/08 07:05:06;;;;;;;6.47;1.38;;;14.70;97.60;;;;;;5044950;28;20041;-66
2022/11/08 07:07:32;;;;;;;9.60;1.95;;;14.70;97.30;;;;;;5039940;28;20037;-65
2022/11/08 07:09:57;;;;;;;8.45;1.42;;;14.70;97.30;;;;;;5041671;28;20112;-67
2022/11/08 07:12:23;;;;;;;6.25;2.08;;;14.70;97.40;;;;;;5056340;28;20067;-69
2022/11/08 07:14:49;;;;;;;10.50;1.85;;;14.70;97.40;;;;;;5051532;28;20033;-65
2022/11/08 07:17:14;;;;;;;13.77;1.60;;;14.70;97.10;;;;;;5050365;28;20021;-64
2022/11/08 07:19:40;;;;;;;4.63;1.30;;;14.70;97.10;;;;;;5046714;28;20052;-65
2022/11/08 07:22:06;;;;;;;5.07;1.30;;;14.70;97.10;;;;;;5051416;28;20029;-65
2022/11/08 07:24:31;;;;;;;4.32;0.98;;;14.70;97.00;;;;;;5048211;28;20492;-65
2022/11/08 07:26:57;;;;;;;5.00;1.10;;;14.70;97.00;;;;;;5051573;28;20050;-67
2022/11/08 07:29:22;;;;;;;3.17;1.25;;;14.70;96.80;;;;;;5053181;28;20029;-65
2022/11/08 07:31:48;;;;;;;4.50;1.60;;;14.70;96.80;;;;;;5053088;28;20031;-65
2022/11/08 07:34:14;;;;;;;4.25;1.25;;;14.70;96.70;;;;;;5058533;28;20029;-64
2022/11/08 07:36:39;;;;;;;3.58;1.13;;;14.70;96.80;;;;;;5052912;28;20017;-65
2022/11/08 07:39:05;;;;;;;3.00;1.30;;;14.70;96.70;;;;;;5043763;28;20048;-67
2022/11/08 07:41:30;;;;;;;8.90;1.60;;;14.70;96.70;;;;;;5046676;28;20025;-65
2022/11/08 07:43:56;;;;;;;4.35;1.70;;;14.70;96.70;;;;;;5046117;28;20096;-65
2022/11/08 07:46:21;;;;;;;6.88;1.70;;;14.70;96.70;;;;;;5055123;28;20036;-68
2022/11/08 07:48:47;;;;;;;2.88;1.10;;;14.70;96.60;;;;;;5055803;28;20091;-65
2022/11/08 07:51:13;;;;;;;3.85;1.38;;;14.70;96.60;;;;;;5047910;28;20021;-64
2022/11/08 07:53:38;;;;;;;3.83;1.10;;;14.60;96.50;;;;;;5054997;28;20029;-63
2022/11/08 07:56:04;;;;;;;6.40;1.20;;;14.70;96.90;;;;;;5055313;28;20021;-63
2022/11/08 07:58:30;;;;;;;2.58;1.20;;;14.70;96.70;;;;;;5053369;28;20100;-63
2022/11/08 08:01:01;;;;;;;6.50;1.27;;;14.70;96.50;;;;;;5047088;28;20104;-65
2022/11/08 08:03:27;;;;;;;4.53;1.00;;;14.70;96.60;;;;;;5054958;28;20040;-65
2022/11/08 08:05:52;;;;;;;4.35;1.55;;;14.70;96.70;;;;;;5051820;28;20469;-63
2022/11/08 08:08:18;;;;;;;2.95;1.13;;;14.70;96.60;;;;;;5055839;28;20041;-63
2022/11/08 08:10:44;;;;;;;4.53;1.60;;;14.70;96.60;;;;;;5050488;28;21799;-62
2022/11/08 08:13:09;;;;;;;2.58;1.13;;;14.70;96.60;;;;;;5052374;28;20036;-62
2022/11/08 08:15:35;;;;;;;2.20;1.02;;;14.70;96.50;;;;;;5054423;28;20051;-63
2022/11/08 08:18:03;;;;;;;5.72;1.15;;;14.70;96.50;;;;;;5054513;28;20025;-65
2022/11/08 08:20:29;;;;;;;2.85;1.27;;;14.80;96.40;;;;;;5054422;28;20032;-63
2022/11/08 08:22:55;;;;;;;2.50;1.20;;;14.70;96.50;;;;;;5052184;28;20397;-63
2022/11/08 08:25:21;;;;;;;8.00;1.17;;;14.80;96.40;;;;;;5054510;28;20028;-64
2022/11/08 08:27:48;;;;;;;5.85;1.33;;;14.80;96.50;;;;;;5052355;28;20080;-68
2022/11/08 08:30:16;;;;;;;3.47;1.38;;;14.80;96.40;;;;;;5054885;28;20131;-67
2022/11/08 08:32:42;;;;;;;4.05;1.58;;;14.80;96.40;;;;;;5054740;28;20028;-68
2022/11/08 08:35:08;;;;;;;2.45;1.30;;;14.90;96.50;;;;;;5051900;28;20022;-65
2022/11/08 08:37:33;;;;;;;5.32;1.38;;;14.90;96.40;;;;;;5054234;28;20109;-67
2022/11/08 08:39:59;;;;;;;4.32;1.30;;;14.90;96.50;;;;;;5052532;28;20211;-65
2022/11/08 08:42:25;;;;;;;6.90;1.45;;;14.90;96.50;;;;;;5053968;28;20079;-67
2022/11/08 08:44:50;;;;;;;4.63;1.42;;;14.90;96.60;;;;;;5054246;28;20021;-67
2022/11/08 08:47:16;;;;;;;2.42;0.98;;;14.90;96.80;;;;;;5053686;28;20041;-65
2022/11/08 08:49:41;;;;;;;4.22;1.55;;;14.90;96.50;;;;;;5054406;28;20112;-68
2022/11/08 08:52:07;;;;;;;3.47;1.27;;;14.90;96.50;;;;;;5054507;28;20363;-67
2022/11/08 08:54:33;;;;;;;5.60;1.42;;;14.90;96.60;;;;;;5057704;28;20107;-68
2022/11/08 08:56:58;;;;;;;4.18;1.55;;;15.00;96.60;;;;;;5053528;28;20032;-67
2022/11/08 08:59:27;;;;;;;5.55;1.45;;;15.00;96.50;;;;;;5049958;28;20450;-66
2022/11/08 09:01:52;;;;;;;6.25;1.42;;;15.00;96.60;;;;;;5052809;28;20031;-68
2022/11/08 09:04:18;;;;;;;6.80;1.50;;;15.00;96.60;;;;;;5050695;28;20104;-67
2022/11/08 09:06:43;;;;;;;2.65;1.23;;;15.00;96.70;;;;;;5053333;28;20040;-67
2022/11/08 09:09:09;;;;;;;2.92;1.40;;;15.00;96.60;;;;;;5053303;28;20032;-68
2022/11/08 09:11:35;;;;;;;7.70;1.33;;;15.00;96.60;;;;;;5054480;28;20040;-67
2022/11/08 09:14:00;;;;;;;4.65;1.80;;;15.00;96.50;;;;;;5051208;28;20029;-67
2022/11/08 09:16:26;;;;;;;7.65;1.60;;;15.00;96.50;;;;;;5048425;28;20024;-69
2022/11/08 09:18:51;;;;;;;3.10;1.00;;;15.10;96.50;;;;;;5052394;28;20104;-68
2022/11/08 09:21:17;;;;;;;4.78;1.60;;;15.10;96.50;;;;;;5047140;28;20025;-68
2022/11/08 09:23:43;;;;;;;3.50;1.13;;;15.10;96.60;;;;;;5054107;28;20057;-68
2022/11/08 09:26:09;;;;;;;4.40;1.70;;;15.10;96.50;;;;;;5052532;28;20032;-68
2022/11/08 09:28:35;;;;;;;4.53;1.42;;;15.10;96.50;;;;;;5052168;28;20041;-67
2022/11/08 09:31:07;;;;;;;3.25;1.55;;;15.10;96.50;;;;;;5052135;28;20017;-67
2022/11/08 09:33:34;;;;;;;3.90;1.00;;;15.10;96.50;;;;;;5053182;28;20035;-67
2022/11/08 09:36:01;;;;;;;5.30;1.27;;;15.20;96.50;;;;;;5053438;28;20037;-67
2022/11/08 09:38:27;;;;;;;4.22;1.27;;;15.20;96.40;;;;;;5052542;28;20033;-65
2022/11/08 09:41:16;;;;;;;3.65;1.35;;;15.20;96.40;;;;;;5052480;28;20052;-65
2022/11/08 09:43:54;;;;;;;1.52;0.98;;;15.20;96.40;;;;;;5053478;28;20021;-64
2022/11/08 09:46:37;;;;;;;5.10;1.05;;;15.20;96.50;;;;;;5053095;28;20053;-67
2022/11/08 09:49:07;;;;;;;3.15;1.17;;;15.20;96.50;;;;;;5053184;28;20036;-65
2022/11/08 09:51:33;;;;;;;4.63;1.60;;;15.20;96.40;;;;;;5051117;28;20024;-65
2022/11/08 09:54:02;;;;;;;3.83;1.10;;;15.20;96.40;;;;;;5052396;28;20381;-65
2022/11/08 09:56:27;;;;;;;3.55;1.20;;;15.30;96.50;;;;;;5052557;28;20039;-66
2022/11/08 09:59:07;;;;;;;2.20;0.95;;;15.30;96.50;;;;;;5056612;28;20028;-65
2022/11/08 10:01:35;;;;;;;3.20;0.90;;;15.30;96.40;;;;;;5056163;28;20028;-65
2022/11/08 10:04:22;;;;;;;2.28;1.25;;;15.30;96.40;;;;;;5052686;28;20440;-65
2022/11/08 10:07:15;;;;;;;2.35;1.30;;;15.30;96.40;;;;;;5051254;28;20481;-66
2022/11/08 10:09:52;;;;;;;2.10;1.55;;;15.30;96.30;;;;;;5052810;28;20029;-65
2022/11/08 10:12:40;;;;;;;2.53;1.10;;;15.40;96.40;;;;;;5042904;28;20459;-66
2022/11/08 10:15:13;;;;;;;1.85;1.20;;;15.40;96.40;;;;;;5056093;28;20034;-65
2022/11/08 10:17:50;;;;;;;4.40;1.10;;;15.30;96.30;;;;;;5051992;28;20500;-65
2022/11/08 10:20:43;;;;;;;3.00;1.38;;;15.40;96.40;;;;;;5052843;28;20469;-67
2022/11/08 10:23:23;;;;;;;5.00;1.30;;;15.40;96.40;;;;;;5054365;28;21631;-64
2022/11/08 10:25:59;;;;;;;2.53;1.05;;;15.40;96.40;;;;;;5052360;28;20025;-66
2022/11/08 10:28:33;;;;;;;2.85;1.35;;;15.40;96.40;;;;;;5051235;28;20045;-65
2022/11/08 10:31:00;;;;;;;3.17;1.58;;;15.40;96.30;;;;;;5051488;28;20021;-66
2022/11/08 10:33:34;;;;;;;3.42;1.48;;;15.40;96.40;;;;;;5044211;28;20056;-67
2022/11/08 10:36:27;;;;;;;4.28;1.40;;;15.40;96.40;;;;;;5051263;28;20021;-66
2022/11/08 10:38:58;;;;;;;7.50;1.35;;;15.40;96.40;;;;;;5049074;28;20056;-67
2022/11/08 10:42:21;;;;;;;5.07;1.10;;;15.50;96.40;;;;;;5046140;28;20054;-66
2022/11/08 10:44:47;;;;;;;4.55;1.40;;;15.40;96.40;;;;;;5024235;28;20033;-66
2022/11/08 10:47:22;;;;;;;5.43;1.30;;;15.50;96.40;;;;;;5043851;28;20049;-67
2022/11/08 10:49:47;;;;;;;4.88;1.25;;;15.50;96.40;;;;;;5052476;28;20029;-65
2022/11/08 10:52:34;;;;;;;5.50;1.48;;;15.50;96.40;;;;;;5053867;28;20040;-66
2022/11/08 10:55:00;;;;;;;4.65;1.38;;;15.50;96.40;;;;;;5045785;28;20025;-66
2022/11/08 10:57:37;;;;;;;3.25;1.10;;;15.50;96.40;;;;;;5044431;28;20055;-67
2022/11/08 11:00:21;;;;;;;4.47;1.48;;;15.60;96.40;;;;;;5053710;28;20469;-65
2022/11/08 11:03:04;;;;;;;3.85;1.40;;;15.60;96.40;;;;;;5054013;28;20103;-65
2022/11/08 11:05:58;;;;;;;3.05;1.55;;;15.60;96.40;;;;;;5055969;28;20033;-66
2022/11/08 11:08:24;;;;;;;5.25;1.52;;;15.60;96.40;;;;;;5037716;28;20494;-67
2022/11/08 11:10:50;;;;;;;4.45;1.50;;;15.60;96.40;;;;;;5038636;28;20040;-65
2022/11/08 11:13:26;;;;;;;5.43;1.40;;;15.60;96.40;;;;;;5057453;28;20033;-67
2022/11/08 11:15:58;;;;;;;3.83;1.70;;;15.70;96.40;;;;;;5050063;28;20013;-65
2022/11/08 11:18:30;;;;;;;3.17;1.75;;;15.60;96.40;;;;;;5058045;28;20508;-67
2022/11/08 11:21:06;;;;;;;5.07;2.05;;;15.70;96.50;;;;;;5055026;28;20373;-66
2022/11/08 11:23:43;;;;;;;4.78;1.65;;;15.60;96.50;;;;;;5052787;28;20071;-65
2022/11/08 11:26:34;;;;;;;4.22;1.77;;;15.70;96.60;;;;;;5054575;28;20546;-64
2022/11/08 11:29:05;;;;;;;7.15;1.85;;;15.70;96.60;;;;;;5051981;28;20028;-66
2022/11/08 11:31:43;;;;;;;4.03;1.40;;;15.70;96.60;;;;;;5051212;28;20029;-66
2022/11/08 11:34:18;;;;;;;7.72;1.80;;;15.70;96.60;;;;;;5050855;28;20099;-64
2022/11/08 11:37:03;;;;;;;7.35;1.60;;;15.70;96.70;;;;;;5052645;28;20095;-64
2022/11/08 11:39:38;;;;;;;4.72;1.52;;;15.70;96.80;;;;;;5044250;28;20440;-65
2022/11/08 11:42:41;;;;;;;9.23;2.60;;;15.80;96.80;;;;;;5052105;28;20060;-66
2022/11/08 11:45:21;;;;;;;5.30;1.83;;;15.80;96.80;;;;;;5015409;28;20128;-65
2022/11/08 11:48:27;;;;;;;13.32;2.10;;;15.80;96.80;;;;;;5054083;28;20039;-65
2022/11/08 11:50:53;;;;;;;9.05;2.33;;;15.80;96.80;;;;;;5052646;28;20039;-66
2022/11/08 11:53:28;;;;;;;5.18;2.00;;;15.80;96.80;;;;;;5051484;28;20115;-66
2022/11/08 11:56:19;;;;;;;7.60;2.20;;;15.80;96.80;;;;;;5055144;28;20028;-65
2022/11/08 11:58:48;;;;;;;7.55;1.60;;;15.90;96.80;;;;;;5048154;28;20512;-64
2022/11/08 12:01:28;;;;;;;7.00;1.60;;;15.90;96.80;;;;;;5054978;28;20052;-67
2022/11/08 12:04:28;;;;;;;7.88;1.65;;;15.90;96.80;;;;;;5054383;28;20477;-66
2022/11/08 12:07:00;;;;;;;11.25;2.22;;;15.90;96.80;;;;;;5051265;28;20505;-53
2022/11/08 12:09:49;;;;;;;;;;;16.70;95.60;;;;;;5049432;28;20470;-53
2022/11/08 12:12:15;;;;;;;8.57;1.90;;;17.00;95.00;;;;;;5044968;28;20023;-53
2022/11/08 12:15:03;;;;;;;10.95;2.17;;;17.10;94.70;;;;;;5054014;28;20056;-54
2022/11/08 12:17:45;;;;;;;8.70;1.75;;;17.20;94.50;;;;;;5052881;28;20024;-54
2022/11/08 12:20:33;;;;;;;10.85;1.98;;;17.20;94.50;;;;;;5051692;28;20485;-53
2022/11/08 12:23:26;;;;;;;6.72;1.50;;;17.30;94.40;;;;;;5052463;28;20032;-53
2022/11/08 12:26:03;;;;;;;6.68;1.60;;;17.30;94.40;;;;;;5053035;28;20070;-55
2022/11/08 12:28:41;;;;;;;10.02;2.25;;;17.30;94.30;;;;;;5049050;28;20053;-56
2022/11/08 12:31:42;;;;;;;10.27;1.92;;;17.30;94.30;;;;;;5050167;28;20108;-55
2022/11/08 12:34:17;;;;;;;9.73;1.98;;;17.40;94.30;;;;;;5052004;28;20141;-54
2022/11/08 12:36:57;;;;;;;10.45;2.28;;;17.40;94.40;;;;;;5053882;28;20033;-50
2022/11/08 12:39:27;;;;;;;6.93;1.40;;;17.40;94.30;;;;;;5056252;28;20098;-52
2022/11/08 12:42:17;;;;;;;8.93;1.75;;;17.40;94.30;;;;;;5054082;28;20060;-52
2022/11/08 12:44:54;;;;;;;4.57;1.48;;;17.40;94.40;;;;;;5054253;28;20021;-52
2022/11/08 12:47:26;;;;;;;10.65;1.75;;;17.30;94.60;;;;;;5047730;28;20040;-54
2022/11/08 12:49:54;;;;;;;8.53;1.70;;;17.30;94.60;;;;;;5051611;28;20095;-52
2022/11/08 12:52:44;;;;;;;8.20;1.55;;;17.30;94.70;;;;;;5053619;28;20290;-51
2022/11/08 12:55:22;;;;;;;5.53;1.42;;;17.40;94.70;;;;;;5050989;28;20531;-53
2022/11/08 12:57:51;;;;;;;3.83;1.35;;;17.40;94.80;;;;;;5053451;28;20489;-53
2022/11/08 13:00:18;;;;;;;4.82;1.25;;;17.40;94.80;;;;;;5051049;28;20025;-54
2022/11/08 13:02:59;;;;;;;6.35;1.65;;;17.40;94.80;;;;;;5050685;28;20386;-53
2022/11/08 13:05:30;;;;;;;4.03;1.42;;;17.40;94.80;;;;;;5053944;28;20037;-53
2022/11/08 13:08:38;;;;;;;6.22;1.58;;;17.40;94.80;;;;;;5053855;28;20037;-53
2022/11/08 13:11:14;;;;;;;6.00;1.60;;;17.40;94.70;;;;;;4972609;28;20034;-49
2022/11/08 13:13:59;;;;;;;3.75;1.50;;;17.40;94.70;;;;;;5043560;28;20068;-53
2022/11/08 13:16:36;;;;;;;5.35;1.27;;;17.40;94.70;;;;;;5053645;28;20040;-49
2022/11/08 13:19:04;;;;;;;5.90;1.40;;;17.40;94.70;;;;;;5052715;28;20075;-50
2022/11/08 13:21:38;;;;;;;4.72;1.60;;;17.50;94.80;;;;;;5053637;28;20028;-50
2022/11/08 13:24:04;;;;;;;5.05;1.33;;;17.50;94.80;;;;;;5053556;28;20033;-53
2022/11/08 13:26:36;;;;;;;7.63;1.70;;;17.50;94.70;;;;;;5052865;28;20397;-51
2022/11/08 13:29:14;;;;;;;9.70;1.80;;;17.50;94.70;;;;;;5053010;28;20025;-54